Terminal Aerodrome Forecast
Issued by NWS

Home | Current Version | Previous Version | Text Only | Print | Product List | Glossary On
Versions: 1 2 3 4 5 6 7 8 9 10 11 12 13
000
FTUS45 KLKN 030520
TAFWMC
TAF
KWMC 030520Z 0306/0406 VRB06KT P6SM FEW100
     FM032100 16011G18KT P6SM FEW100 SCT200
     FM040200 13012KT P6SM BKN100=

USA.gov is the U.S. government's official web portal to all federal, state and local government web resources and services.